sensor_id;sensor_type;location;lat;lon;timestamp;temperature;humidity
39033;DHT22;24794;51.982;5.878;2022-08-14T00:00:31;26.10;62.30
39033;DHT22;24794;51.982;5.878;2022-08-14T00:01:31;26.10;62.30
39033;DHT22;24794;51.982;5.878;2022-08-14T00:02:32;26.10;62.40
39033;DHT22;24794;51.982;5.878;2022-08-14T00:03:33;26.10;62.50
39033;DHT22;24794;51.982;5.878;2022-08-14T00:04:34;26.00;62.50
39033;DHT22;24794;51.982;5.878;2022-08-14T00:05:36;26.00;63.10
39033;DHT22;24794;51.982;5.878;2022-08-14T00:06:37;26.00;62.60
39033;DHT22;24794;51.982;5.878;2022-08-14T00:07:37;26.00;62.70
39033;DHT22;24794;51.982;5.878;2022-08-14T00:08:38;26.00;62.80
39033;DHT22;24794;51.982;5.878;2022-08-14T00:09:38;26.00;62.90
39033;DHT22;24794;51.982;5.878;2022-08-14T00:10:39;25.90;62.90
39033;DHT22;24794;51.982;5.878;2022-08-14T00:11:40;25.90;63.00
39033;DHT22;24794;51.982;5.878;2022-08-14T00:12:45;25.90;63.10
39033;DHT22;24794;51.982;5.878;2022-08-14T00:13:46;25.90;63.20
39033;DHT22;24794;51.982;5.878;2022-08-14T00:14:47;25.90;63.20
39033;DHT22;24794;51.982;5.878;2022-08-14T00:15:49;25.90;63.20
39033;DHT22;24794;51.982;5.878;2022-08-14T00:16:49;25.80;63.30
39033;DHT22;24794;51.982;5.878;2022-08-14T00:17:52;25.80;63.40
39033;DHT22;24794;51.982;5.878;2022-08-14T00:18:52;25.80;63.40
39033;DHT22;24794;51.982;5.878;2022-08-14T00:19:53;25.80;63.50
39033;DHT22;24794;51.982;5.878;2022-08-14T00:20:55;25.80;63.60
39033;DHT22;24794;51.982;5.878;2022-08-14T00:21:56;25.80;63.60
39033;DHT22;24794;51.982;5.878;2022-08-14T00:22:58;25.80;63.70
39033;DHT22;24794;51.982;5.878;2022-08-14T00:23:59;25.70;63.60
39033;DHT22;24794;51.982;5.878;2022-08-14T00:24:59;25.70;63.70
39033;DHT22;24794;51.982;5.878;2022-08-14T00:26:00;25.70;63.80
39033;DHT22;24794;51.982;5.878;2022-08-14T00:27:01;25.70;63.90
39033;DHT22;24794;51.982;5.878;2022-08-14T00:28:03;25.70;63.90
39033;DHT22;24794;51.982;5.878;2022-08-14T00:29:04;25.70;64.00
39033;DHT22;24794;51.982;5.878;2022-08-14T00:30:06;25.70;64.40
39033;DHT22;24794;51.982;5.878;2022-08-14T00:31:07;25.60;64.00
39033;DHT22;24794;51.982;5.878;2022-08-14T00:32:08;25.60;64.10
39033;DHT22;24794;51.982;5.878;2022-08-14T00:33:09;25.60;64.20
39033;DHT22;24794;51.982;5.878;2022-08-14T00:34:09;25.60;64.40
39033;DHT22;24794;51.982;5.878;2022-08-14T00:35:11;25.60;64.40
39033;DHT22;24794;51.982;5.878;2022-08-14T00:36:11;25.60;64.40
39033;DHT22;24794;51.982;5.878;2022-08-14T00:37:12;25.60;64.60
39033;DHT22;24794;51.982;5.878;2022-08-14T00:38:13;25.60;64.70
39033;DHT22;24794;51.982;5.878;2022-08-14T00:39:14;25.60;64.70
39033;DHT22;24794;51.982;5.878;2022-08-14T00:40:16;25.50;64.70
39033;DHT22;24794;51.982;5.878;2022-08-14T00:41:17;25.50;64.80
39033;DHT22;24794;51.982;5.878;2022-08-14T00:42:22;25.50;64.90
39033;DHT22;24794;51.982;5.878;2022-08-14T00:43:23;25.50;65.00
39033;DHT22;24794;51.982;5.878;2022-08-14T00:44:24;25.50;65.10
39033;DHT22;24794;51.982;5.878;2022-08-14T00:45:24;25.50;65.20
39033;DHT22;24794;51.982;5.878;2022-08-14T00:46:25;25.40;65.20
39033;DHT22;24794;51.982;5.878;2022-08-14T00:47:26;25.40;65.20
39033;DHT22;24794;51.982;5.878;2022-08-14T00:48:26;25.40;65.20
39033;DHT22;24794;51.982;5.878;2022-08-14T00:49:27;25.40;65.30
39033;DHT22;24794;51.982;5.878;2022-08-14T00:50:28;25.50;65.40
39033;DHT22;24794;51.982;5.878;2022-08-14T00:51:29;25.40;65.40
39033;DHT22;24794;51.982;5.878;2022-08-14T00:52:32;25.40;65.50
39033;DHT22;24794;51.982;5.878;2022-08-14T00:53:33;25.40;65.50
39033;DHT22;24794;51.982;5.878;2022-08-14T00:54:34;25.40;65.60
39033;DHT22;24794;51.982;5.878;2022-08-14T00:55:37;25.40;65.70
39033;DHT22;24794;51.982;5.878;2022-08-14T00:56:40;25.30;65.60
39033;DHT22;24794;51.982;5.878;2022-08-14T00:57:41;25.40;65.80
39033;DHT22;24794;51.982;5.878;2022-08-14T00:58:42;25.30;65.70
39033;DHT22;24794;51.982;5.878;2022-08-14T00:59:42;25.30;65.80
39033;DHT22;24794;51.982;5.878;2022-08-14T01:00:43;25.30;65.80
39033;DHT22;24794;51.982;5.878;2022-08-14T01:01:44;25.30;65.80
39033;DHT22;24794;51.982;5.878;2022-08-14T01:02:45;25.30;65.80
39033;DHT22;24794;51.982;5.878;2022-08-14T01:03:46;25.30;66.00
39033;DHT22;24794;51.982;5.878;2022-08-14T01:04:47;25.30;66.00
39033;DHT22;24794;51.982;5.878;2022-08-14T01:05:50;25.30;66.10
39033;DHT22;24794;51.982;5.878;2022-08-14T01:06:51;25.30;66.10
39033;DHT22;24794;51.982;5.878;2022-08-14T01:07:53;25.30;66.20
39033;DHT22;24794;51.982;5.878;2022-08-14T01:08:57;25.20;66.20
39033;DHT22;24794;51.982;5.878;2022-08-14T01:10:01;25.20;66.40
39033;DHT22;24794;51.982;5.878;2022-08-14T01:11:02;25.20;66.50
39033;DHT22;24794;51.982;5.878;2022-08-14T01:12:04;25.20;66.60
39033;DHT22;24794;51.982;5.878;2022-08-14T01:13:05;25.10;66.60
39033;DHT22;24794;51.982;5.878;2022-08-14T01:14:05;25.10;66.60
39033;DHT22;24794;51.982;5.878;2022-08-14T01:15:06;25.10;66.60
39033;DHT22;24794;51.982;5.878;2022-08-14T01:16:10;25.10;66.60
39033;DHT22;24794;51.982;5.878;2022-08-14T01:17:12;25.10;66.70
39033;DHT22;24794;51.982;5.878;2022-08-14T01:18:13;25.10;66.70
39033;DHT22;24794;51.982;5.878;2022-08-14T01:19:32;25.00;66.70
39033;DHT22;24794;51.982;5.878;2022-08-14T01:20:52;25.00;66.70
39033;DHT22;24794;51.982;5.878;2022-08-14T01:22:12;25.00;66.80
39033;DHT22;24794;51.982;5.878;2022-08-14T01:23:14;25.00;66.90
39033;DHT22;24794;51.982;5.878;2022-08-14T01:24:14;25.00;67.00
39033;DHT22;24794;51.982;5.878;2022-08-14T01:25:15;25.00;67.00
39033;DHT22;24794;51.982;5.878;2022-08-14T01:26:17;25.00;67.00
39033;DHT22;24794;51.982;5.878;2022-08-14T01:27:23;25.00;67.10
39033;DHT22;24794;51.982;5.878;2022-08-14T01:28:24;25.00;67.10
39033;DHT22;24794;51.982;5.878;2022-08-14T01:29:31;24.90;67.20
39033;DHT22;24794;51.982;5.878;2022-08-14T01:30:37;24.90;67.20
39033;DHT22;24794;51.982;5.878;2022-08-14T01:31:40;25.00;67.20
39033;DHT22;24794;51.982;5.878;2022-08-14T01:32:46;24.90;67.20
39033;DHT22;24794;51.982;5.878;2022-08-14T01:33:48;24.90;67.30
39033;DHT22;24794;51.982;5.878;2022-08-14T01:34:51;24.90;67.40
39033;DHT22;24794;51.982;5.878;2022-08-14T01:35:57;24.90;67.40
39033;DHT22;24794;51.982;5.878;2022-08-14T01:36:59;24.90;67.50
39033;DHT22;24794;51.982;5.878;2022-08-14T01:38:02;24.90;67.50
39033;DHT22;24794;51.982;5.878;2022-08-14T01:39:09;24.90;67.50
39033;DHT22;24794;51.982;5.878;2022-08-14T01:40:10;24.90;67.60
39033;DHT22;24794;51.982;5.878;2022-08-14T01:41:14;24.90;67.60
39033;DHT22;24794;51.982;5.878;2022-08-14T01:42:14;24.80;67.70
39033;DHT22;24794;51.982;5.878;2022-08-14T01:43:16;24.90;67.80
39033;DHT22;24794;51.982;5.878;2022-08-14T01:44:17;24.80;67.70
39033;DHT22;24794;51.982;5.878;2022-08-14T01:45:17;24.80;67.80
39033;DHT22;24794;51.982;5.878;2022-08-14T01:46:20;24.80;67.80
39033;DHT22;24794;51.982;5.878;2022-08-14T01:47:21;24.80;67.90
39033;DHT22;24794;51.982;5.878;2022-08-14T01:48:22;24.70;67.90
39033;DHT22;24794;51.982;5.878;2022-08-14T01:49:24;24.80;68.00
39033;DHT22;24794;51.982;5.878;2022-08-14T01:50:24;24.80;68.10
39033;DHT22;24794;51.982;5.878;2022-08-14T01:51:26;24.70;68.00
39033;DHT22;24794;51.982;5.878;2022-08-14T01:52:35;24.70;68.10
39033;DHT22;24794;51.982;5.878;2022-08-14T01:53:38;24.70;68.10
39033;DHT22;24794;51.982;5.878;2022-08-14T01:54:38;24.70;68.20
39033;DHT22;24794;51.982;5.878;2022-08-14T01:55:39;24.70;68.20
39033;DHT22;24794;51.982;5.878;2022-08-14T01:56:40;24.70;68.30
39033;DHT22;24794;51.982;5.878;2022-08-14T01:57:44;24.70;68.40
39033;DHT22;24794;51.982;5.878;2022-08-14T01:58:46;24.70;68.50
39033;DHT22;24794;51.982;5.878;2022-08-14T01:59:55;24.60;69.10
39033;DHT22;24794;51.982;5.878;2022-08-14T02:00:56;24.60;68.70
39033;DHT22;24794;51.982;5.878;2022-08-14T02:02:00;24.60;68.70
39033;DHT22;24794;51.982;5.878;2022-08-14T02:03:01;24.60;68.70
39033;DHT22;24794;51.982;5.878;2022-08-14T02:04:03;24.60;68.80
39033;DHT22;24794;51.982;5.878;2022-08-14T02:05:04;24.60;68.90
39033;DHT22;24794;51.982;5.878;2022-08-14T02:06:05;24.60;68.90
39033;DHT22;24794;51.982;5.878;2022-08-14T02:07:08;24.50;68.80
39033;DHT22;24794;51.982;5.878;2022-08-14T02:08:09;24.50;68.90
39033;DHT22;24794;51.982;5.878;2022-08-14T02:09:10;24.50;68.90
39033;DHT22;24794;51.982;5.878;2022-08-14T02:10:12;24.50;68.90
39033;DHT22;24794;51.982;5.878;2022-08-14T02:11:13;24.50;69.00
39033;DHT22;24794;51.982;5.878;2022-08-14T02:12:18;24.50;69.00
39033;DHT22;24794;51.982;5.878;2022-08-14T02:13:18;24.50;69.10
39033;DHT22;24794;51.982;5.878;2022-08-14T02:14:20;24.50;69.70
39033;DHT22;24794;51.982;5.878;2022-08-14T02:15:21;24.50;69.10
39033;DHT22;24794;51.982;5.878;2022-08-14T02:16:23;24.40;69.20
39033;DHT22;24794;51.982;5.878;2022-08-14T02:17:28;24.50;69.30
39033;DHT22;24794;51.982;5.878;2022-08-14T02:18:32;24.40;69.20
39033;DHT22;24794;51.982;5.878;2022-08-14T02:19:32;24.40;69.20
39033;DHT22;24794;51.982;5.878;2022-08-14T02:20:34;24.40;69.40
39033;DHT22;24794;51.982;5.878;2022-08-14T02:21:37;24.40;69.40
39033;DHT22;24794;51.982;5.878;2022-08-14T02:22:37;24.40;69.40
39033;DHT22;24794;51.982;5.878;2022-08-14T02:23:38;24.40;69.50
39033;DHT22;24794;51.982;5.878;2022-08-14T02:24:39;24.30;69.50
39033;DHT22;24794;51.982;5.878;2022-08-14T02:25:40;24.40;69.60
39033;DHT22;24794;51.982;5.878;2022-08-14T02:26:42;24.30;69.60
39033;DHT22;24794;51.982;5.878;2022-08-14T02:27:46;24.30;69.70
39033;DHT22;24794;51.982;5.878;2022-08-14T02:28:52;24.30;69.70
39033;DHT22;24794;51.982;5.878;2022-08-14T02:29:53;24.30;69.70
39033;DHT22;24794;51.982;5.878;2022-08-14T02:30:57;24.30;69.80
39033;DHT22;24794;51.982;5.878;2022-08-14T02:31:59;24.30;69.80
39033;DHT22;24794;51.982;5.878;2022-08-14T02:33:00;24.30;69.80
39033;DHT22;24794;51.982;5.878;2022-08-14T02:34:07;24.30;69.80
39033;DHT22;24794;51.982;5.878;2022-08-14T02:35:10;24.30;69.90
39033;DHT22;24794;51.982;5.878;2022-08-14T02:36:17;24.30;69.80
39033;DHT22;24794;51.982;5.878;2022-08-14T02:37:18;24.30;69.90
39033;DHT22;24794;51.982;5.878;2022-08-14T02:38:19;24.30;69.80
39033;DHT22;24794;51.982;5.878;2022-08-14T02:39:19;24.30;69.80
39033;DHT22;24794;51.982;5.878;2022-08-14T02:40:20;24.40;69.90
39033;DHT22;24794;51.982;5.878;2022-08-14T02:41:21;24.30;69.90
39033;DHT22;24794;51.982;5.878;2022-08-14T02:42:22;24.30;69.90
39033;DHT22;24794;51.982;5.878;2022-08-14T02:43:24;24.40;70.00
39033;DHT22;24794;51.982;5.878;2022-08-14T02:44:28;24.40;70.00
39033;DHT22;24794;51.982;5.878;2022-08-14T02:45:29;24.40;69.90
39033;DHT22;24794;51.982;5.878;2022-08-14T02:46:33;24.40;70.00
39033;DHT22;24794;51.982;5.878;2022-08-14T02:47:34;24.40;70.00
39033;DHT22;24794;51.982;5.878;2022-08-14T02:48:38;24.40;70.00
39033;DHT22;24794;51.982;5.878;2022-08-14T02:49:39;24.40;70.00
39033;DHT22;24794;51.982;5.878;2022-08-14T02:50:40;24.40;70.00
39033;DHT22;24794;51.982;5.878;2022-08-14T02:51:45;24.40;70.10
39033;DHT22;24794;51.982;5.878;2022-08-14T02:52:46;24.40;70.10
39033;DHT22;24794;51.982;5.878;2022-08-14T02:53:47;24.40;70.10
39033;DHT22;24794;51.982;5.878;2022-08-14T02:54:47;24.40;70.10
39033;DHT22;24794;51.982;5.878;2022-08-14T02:55:48;24.40;70.10
39033;DHT22;24794;51.982;5.878;2022-08-14T02:56:53;24.40;70.10
39033;DHT22;24794;51.982;5.878;2022-08-14T02:57:56;24.40;70.20
39033;DHT22;24794;51.982;5.878;2022-08-14T02:58:57;24.40;70.20
39033;DHT22;24794;51.982;5.878;2022-08-14T03:00:01;24.40;70.30
39033;DHT22;24794;51.982;5.878;2022-08-14T03:01:03;24.40;70.30
39033;DHT22;24794;51.982;5.878;2022-08-14T03:02:04;24.30;70.30
39033;DHT22;24794;51.982;5.878;2022-08-14T03:03:05;24.30;70.30
39033;DHT22;24794;51.982;5.878;2022-08-14T03:04:05;24.30;70.40
39033;DHT22;24794;51.982;5.878;2022-08-14T03:05:09;24.40;70.40
39033;DHT22;24794;51.982;5.878;2022-08-14T03:06:12;24.30;70.40
39033;DHT22;24794;51.982;5.878;2022-08-14T03:07:13;24.30;70.40
39033;DHT22;24794;51.982;5.878;2022-08-14T03:08:17;24.30;70.50
39033;DHT22;24794;51.982;5.878;2022-08-14T03:09:17;24.30;70.50
39033;DHT22;24794;51.982;5.878;2022-08-14T03:10:18;24.30;70.60
39033;DHT22;24794;51.982;5.878;2022-08-14T03:11:19;24.30;70.60
39033;DHT22;24794;51.982;5.878;2022-08-14T03:12:21;24.30;70.70
39033;DHT22;24794;51.982;5.878;2022-08-14T03:13:22;24.20;70.60
39033;DHT22;24794;51.982;5.878;2022-08-14T03:14:22;24.20;70.70
39033;DHT22;24794;51.982;5.878;2022-08-14T03:15:25;24.20;70.70
39033;DHT22;24794;51.982;5.878;2022-08-14T03:16:27;24.20;70.80
39033;DHT22;24794;51.982;5.878;2022-08-14T03:17:35;24.20;70.90
39033;DHT22;24794;51.982;5.878;2022-08-14T03:18:37;24.10;70.90
39033;DHT22;24794;51.982;5.878;2022-08-14T03:19:44;24.10;71.00
39033;DHT22;24794;51.982;5.878;2022-08-14T03:20:44;24.10;71.10
39033;DHT22;24794;51.982;5.878;2022-08-14T03:21:45;24.10;71.10
39033;DHT22;24794;51.982;5.878;2022-08-14T03:22:46;24.10;71.20
39033;DHT22;24794;51.982;5.878;2022-08-14T03:23:48;24.00;71.20
39033;DHT22;24794;51.982;5.878;2022-08-14T03:24:49;24.00;71.30
39033;DHT22;24794;51.982;5.878;2022-08-14T03:25:50;24.00;71.40
39033;DHT22;24794;51.982;5.878;2022-08-14T03:26:51;24.00;71.50
39033;DHT22;24794;51.982;5.878;2022-08-14T03:27:55;23.90;71.50
39033;DHT22;24794;51.982;5.878;2022-08-14T03:28:56;23.90;71.50
39033;DHT22;24794;51.982;5.878;2022-08-14T03:29:57;23.90;71.70
39033;DHT22;24794;51.982;5.878;2022-08-14T03:30:58;23.90;71.70
39033;DHT22;24794;51.982;5.878;2022-08-14T03:31:59;23.80;71.80
39033;DHT22;24794;51.982;5.878;2022-08-14T03:33:00;23.80;71.80
39033;DHT22;24794;51.982;5.878;2022-08-14T03:34:01;23.80;71.80
39033;DHT22;24794;51.982;5.878;2022-08-14T03:35:04;23.80;72.00
39033;DHT22;24794;51.982;5.878;2022-08-14T03:36:07;23.80;72.00
39033;DHT22;24794;51.982;5.878;2022-08-14T03:37:11;23.80;72.60
39033;DHT22;24794;51.982;5.878;2022-08-14T03:38:12;23.80;72.00
39033;DHT22;24794;51.982;5.878;2022-08-14T03:39:13;23.80;72.00
39033;DHT22;24794;51.982;5.878;2022-08-14T03:40:13;23.80;72.10
39033;DHT22;24794;51.982;5.878;2022-08-14T03:41:20;23.80;72.20
39033;DHT22;24794;51.982;5.878;2022-08-14T03:42:21;23.80;72.20
39033;DHT22;24794;51.982;5.878;2022-08-14T03:43:24;23.80;72.30
39033;DHT22;24794;51.982;5.878;2022-08-14T03:44:26;23.70;72.30
39033;DHT22;24794;51.982;5.878;2022-08-14T03:45:27;23.70;72.30
39033;DHT22;24794;51.982;5.878;2022-08-14T03:46:30;23.80;72.40
39033;DHT22;24794;51.982;5.878;2022-08-14T03:47:31;23.70;72.40
39033;DHT22;24794;51.982;5.878;2022-08-14T03:48:32;23.70;72.30
39033;DHT22;24794;51.982;5.878;2022-08-14T03:49:32;23.70;72.40
39033;DHT22;24794;51.982;5.878;2022-08-14T03:50:33;23.70;72.50
39033;DHT22;24794;51.982;5.878;2022-08-14T03:51:35;23.70;72.50
39033;DHT22;24794;51.982;5.878;2022-08-14T03:52:37;23.70;72.50
39033;DHT22;24794;51.982;5.878;2022-08-14T03:53:42;23.70;72.60
39033;DHT22;24794;51.982;5.878;2022-08-14T03:54:43;23.70;72.60
39033;DHT22;24794;51.982;5.878;2022-08-14T03:55:43;23.70;72.70
39033;DHT22;24794;51.982;5.878;2022-08-14T03:56:44;23.60;72.70
39033;DHT22;24794;51.982;5.878;2022-08-14T03:57:45;23.60;72.80
39033;DHT22;24794;51.982;5.878;2022-08-14T03:58:50;23.60;72.90
39033;DHT22;24794;51.982;5.878;2022-08-14T03:59:50;23.60;72.90
39033;DHT22;24794;51.982;5.878;2022-08-14T04:00:51;23.60;73.10
39033;DHT22;24794;51.982;5.878;2022-08-14T04:01:52;23.50;73.10
39033;DHT22;24794;51.982;5.878;2022-08-14T04:02:53;23.50;73.20
39033;DHT22;24794;51.982;5.878;2022-08-14T04:03:55;23.50;73.30
39033;DHT22;24794;51.982;5.878;2022-08-14T04:05:08;23.50;73.30
39033;DHT22;24794;51.982;5.878;2022-08-14T04:06:09;23.40;73.40
39033;DHT22;24794;51.982;5.878;2022-08-14T04:07:11;23.40;73.40
39033;DHT22;24794;51.982;5.878;2022-08-14T04:08:11;23.40;73.60
39033;DHT22;24794;51.982;5.878;2022-08-14T04:09:12;23.40;73.60
39033;DHT22;24794;51.982;5.878;2022-08-14T04:10:12;23.30;73.70
39033;DHT22;24794;51.982;5.878;2022-08-14T04:11:13;23.30;73.80
39033;DHT22;24794;51.982;5.878;2022-08-14T04:12:14;23.30;73.80
39033;DHT22;24794;51.982;5.878;2022-08-14T04:13:19;23.30;74.50
39033;DHT22;24794;51.982;5.878;2022-08-14T04:14:20;23.30;73.90
39033;DHT22;24794;51.982;5.878;2022-08-14T04:15:20;23.30;73.90
39033;DHT22;24794;51.982;5.878;2022-08-14T04:16:21;23.30;73.90
39033;DHT22;24794;51.982;5.878;2022-08-14T04:17:23;23.30;73.90
39033;DHT22;24794;51.982;5.878;2022-08-14T04:18:23;23.30;73.90
39033;DHT22;24794;51.982;5.878;2022-08-14T04:19:24;23.30;73.90
39033;DHT22;24794;51.982;5.878;2022-08-14T04:20:24;23.40;74.00
39033;DHT22;24794;51.982;5.878;2022-08-14T04:21:26;23.30;73.90
39033;DHT22;24794;51.982;5.878;2022-08-14T04:22:30;23.30;73.90
39033;DHT22;24794;51.982;5.878;2022-08-14T04:23:31;23.30;74.00
39033;DHT22;24794;51.982;5.878;2022-08-14T04:24:32;23.30;74.00
39033;DHT22;24794;51.982;5.878;2022-08-14T04:25:33;23.30;74.00
39033;DHT22;24794;51.982;5.878;2022-08-14T04:26:35;23.30;74.00
39033;DHT22;24794;51.982;5.878;2022-08-14T04:27:36;23.30;74.00
39033;DHT22;24794;51.982;5.878;2022-08-14T04:28:39;23.30;74.00
39033;DHT22;24794;51.982;5.878;2022-08-14T04:29:42;23.30;74.00
39033;DHT22;24794;51.982;5.878;2022-08-14T04:30:42;23.30;74.10
39033;DHT22;24794;51.982;5.878;2022-08-14T04:31:43;23.30;74.10
39033;DHT22;24794;51.982;5.878;2022-08-14T04:32:44;23.30;74.10
39033;DHT22;24794;51.982;5.878;2022-08-14T04:33:45;23.30;74.20
39033;DHT22;24794;51.982;5.878;2022-08-14T04:34:46;23.30;74.30
39033;DHT22;24794;51.982;5.878;2022-08-14T04:35:46;23.30;74.30
39033;DHT22;24794;51.982;5.878;2022-08-14T04:36:47;23.30;74.30
39033;DHT22;24794;51.982;5.878;2022-08-14T04:38:07;23.30;74.40
39033;DHT22;24794;51.982;5.878;2022-08-14T04:39:26;23.30;74.30
39033;DHT22;24794;51.982;5.878;2022-08-14T04:40:45;23.30;74.30
39033;DHT22;24794;51.982;5.878;2022-08-14T04:42:04;23.30;74.40
39033;DHT22;24794;51.982;5.878;2022-08-14T04:43:24;23.30;74.40
39033;DHT22;24794;51.982;5.878;2022-08-14T04:44:37;23.30;74.40
39033;DHT22;24794;51.982;5.878;2022-08-14T04:45:38;23.30;74.40
39033;DHT22;24794;51.982;5.878;2022-08-14T04:46:42;23.30;74.50
39033;DHT22;24794;51.982;5.878;2022-08-14T04:48:10;23.30;74.60
39033;DHT22;24794;51.982;5.878;2022-08-14T04:49:14;23.20;74.50
39033;DHT22;24794;51.982;5.878;2022-08-14T04:50:14;23.30;74.60
39033;DHT22;24794;51.982;5.878;2022-08-14T04:51:17;23.20;74.60
39033;DHT22;24794;51.982;5.878;2022-08-14T04:52:18;23.20;74.60
39033;DHT22;24794;51.982;5.878;2022-08-14T04:53:22;23.20;74.70
39033;DHT22;24794;51.982;5.878;2022-08-14T04:54:23;23.20;74.70
39033;DHT22;24794;51.982;5.878;2022-08-14T04:55:26;23.20;74.80
39033;DHT22;24794;51.982;5.878;2022-08-14T04:56:27;23.20;74.80
39033;DHT22;24794;51.982;5.878;2022-08-14T04:57:27;23.20;74.90
39033;DHT22;24794;51.982;5.878;2022-08-14T04:58:29;23.20;74.90
39033;DHT22;24794;51.982;5.878;2022-08-14T04:59:31;23.20;74.90
39033;DHT22;24794;51.982;5.878;2022-08-14T05:00:33;23.20;74.90
39033;DHT22;24794;51.982;5.878;2022-08-14T05:01:33;23.20;74.90
39033;DHT22;24794;51.982;5.878;2022-08-14T05:02:34;23.20;75.00
39033;DHT22;24794;51.982;5.878;2022-08-14T05:03:36;23.30;75.00
39033;DHT22;24794;51.982;5.878;2022-08-14T05:04:37;23.30;75.10
39033;DHT22;24794;51.982;5.878;2022-08-14T05:05:38;23.30;75.10
39033;DHT22;24794;51.982;5.878;2022-08-14T05:06:38;23.30;75.10
39033;DHT22;24794;51.982;5.878;2022-08-14T05:07:39;23.30;75.20
39033;DHT22;24794;51.982;5.878;2022-08-14T05:08:41;23.30;75.20
39033;DHT22;24794;51.982;5.878;2022-08-14T05:09:42;23.20;75.20
39033;DHT22;24794;51.982;5.878;2022-08-14T05:10:46;23.20;75.20
39033;DHT22;24794;51.982;5.878;2022-08-14T05:11:47;23.20;75.20
39033;DHT22;24794;51.982;5.878;2022-08-14T05:12:49;23.20;75.20
39033;DHT22;24794;51.982;5.878;2022-08-14T05:13:51;23.20;75.30
39033;DHT22;24794;51.982;5.878;2022-08-14T05:14:52;23.20;75.30
39033;DHT22;24794;51.982;5.878;2022-08-14T05:15:54;23.20;75.40
39033;DHT22;24794;51.982;5.878;2022-08-14T05:16:54;23.20;75.40
39033;DHT22;24794;51.982;5.878;2022-08-14T05:17:57;23.20;75.40
39033;DHT22;24794;51.982;5.878;2022-08-14T05:18:57;23.20;75.40
39033;DHT22;24794;51.982;5.878;2022-08-14T05:19:58;23.20;75.40
39033;DHT22;24794;51.982;5.878;2022-08-14T05:21:08;23.20;75.40
39033;DHT22;24794;51.982;5.878;2022-08-14T05:22:08;23.20;75.30
39033;DHT22;24794;51.982;5.878;2022-08-14T05:23:10;23.20;75.40
39033;DHT22;24794;51.982;5.878;2022-08-14T05:24:10;23.20;75.40
39033;DHT22;24794;51.982;5.878;2022-08-14T05:25:11;23.20;75.40
39033;DHT22;24794;51.982;5.878;2022-08-14T05:26:12;23.20;75.40
39033;DHT22;24794;51.982;5.878;2022-08-14T05:27:12;23.20;75.50
39033;DHT22;24794;51.982;5.878;2022-08-14T05:28:15;23.20;75.50
39033;DHT22;24794;51.982;5.878;2022-08-14T05:29:18;23.20;75.50
39033;DHT22;24794;51.982;5.878;2022-08-14T05:30:18;23.20;75.50
39033;DHT22;24794;51.982;5.878;2022-08-14T05:31:19;23.20;75.60
39033;DHT22;24794;51.982;5.878;2022-08-14T05:32:20;23.20;75.60
39033;DHT22;24794;51.982;5.878;2022-08-14T05:33:22;23.20;75.60
39033;DHT22;24794;51.982;5.878;2022-08-14T05:34:23;23.20;75.60
39033;DHT22;24794;51.982;5.878;2022-08-14T05:35:29;23.20;75.60
39033;DHT22;24794;51.982;5.878;2022-08-14T05:36:31;23.20;75.60
39033;DHT22;24794;51.982;5.878;2022-08-14T05:37:33;23.30;75.60
39033;DHT22;24794;51.982;5.878;2022-08-14T05:38:37;23.30;75.60
39033;DHT22;24794;51.982;5.878;2022-08-14T05:39:38;23.30;75.60
39033;DHT22;24794;51.982;5.878;2022-08-14T05:40:44;23.30;75.60
39033;DHT22;24794;51.982;5.878;2022-08-14T05:41:45;23.30;75.60
39033;DHT22;24794;51.982;5.878;2022-08-14T05:42:45;23.30;75.60
39033;DHT22;24794;51.982;5.878;2022-08-14T05:43:46;23.30;75.70
39033;DHT22;24794;51.982;5.878;2022-08-14T05:44:47;23.30;75.70
39033;DHT22;24794;51.982;5.878;2022-08-14T05:45:48;23.30;75.70
39033;DHT22;24794;51.982;5.878;2022-08-14T05:46:48;23.30;75.80
39033;DHT22;24794;51.982;5.878;2022-08-14T05:47:49;23.30;75.70
39033;DHT22;24794;51.982;5.878;2022-08-14T05:48:52;23.40;75.80
39033;DHT22;24794;51.982;5.878;2022-08-14T05:49:52;23.40;75.80
39033;DHT22;24794;51.982;5.878;2022-08-14T05:50:54;23.40;75.80
39033;DHT22;24794;51.982;5.878;2022-08-14T05:51:54;23.50;75.80
39033;DHT22;24794;51.982;5.878;2022-08-14T05:52:55;23.50;75.70
39033;DHT22;24794;51.982;5.878;2022-08-14T05:53:56;23.50;75.70
39033;DHT22;24794;51.982;5.878;2022-08-14T05:54:56;23.50;75.60
39033;DHT22;24794;51.982;5.878;2022-08-14T05:55:57;23.50;75.60
39033;DHT22;24794;51.982;5.878;2022-08-14T05:57:02;23.60;75.70
39033;DHT22;24794;51.982;5.878;2022-08-14T05:58:07;23.60;75.70
39033;DHT22;24794;51.982;5.878;2022-08-14T05:59:09;23.60;75.60
39033;DHT22;24794;51.982;5.878;2022-08-14T06:00:10;23.60;75.50
39033;DHT22;24794;51.982;5.878;2022-08-14T06:01:11;23.60;75.50
39033;DHT22;24794;51.982;5.878;2022-08-14T06:02:12;23.70;75.50
39033;DHT22;24794;51.982;5.878;2022-08-14T06:03:18;23.70;75.50
39033;DHT22;24794;51.982;5.878;2022-08-14T06:04:19;23.70;75.40
39033;DHT22;24794;51.982;5.878;2022-08-14T06:05:21;23.80;75.40
39033;DHT22;24794;51.982;5.878;2022-08-14T06:06:22;23.80;75.40
39033;DHT22;24794;51.982;5.878;2022-08-14T06:07:22;23.80;75.30
39033;DHT22;24794;51.982;5.878;2022-08-14T06:08:28;23.90;75.30
39033;DHT22;24794;51.982;5.878;2022-08-14T06:09:28;23.90;75.20
39033;DHT22;24794;51.982;5.878;2022-08-14T06:10:30;23.90;75.20
39033;DHT22;24794;51.982;5.878;2022-08-14T06:11:31;23.90;75.10
39033;DHT22;24794;51.982;5.878;2022-08-14T06:12:32;24.00;75.00
39033;DHT22;24794;51.982;5.878;2022-08-14T06:13:40;24.10;75.00
39033;DHT22;24794;51.982;5.878;2022-08-14T06:14:41;24.10;75.00
39033;DHT22;24794;51.982;5.878;2022-08-14T06:15:42;24.20;75.00
39033;DHT22;24794;51.982;5.878;2022-08-14T06:16:42;24.20;74.90
39033;DHT22;24794;51.982;5.878;2022-08-14T06:17:52;24.20;75.00
39033;DHT22;24794;51.982;5.878;2022-08-14T06:18:55;24.30;74.90
39033;DHT22;24794;51.982;5.878;2022-08-14T06:19:55;24.30;74.70
39033;DHT22;24794;51.982;5.878;2022-08-14T06:20:56;24.40;74.80
39033;DHT22;24794;51.982;5.878;2022-08-14T06:21:57;24.40;75.50
39033;DHT22;24794;51.982;5.878;2022-08-14T06:22:58;24.40;74.70
39033;DHT22;24794;51.982;5.878;2022-08-14T06:23:59;24.50;74.70
39033;DHT22;24794;51.982;5.878;2022-08-14T06:24:59;24.50;74.50
39033;DHT22;24794;51.982;5.878;2022-08-14T06:26:00;24.50;74.30
39033;DHT22;24794;51.982;5.878;2022-08-14T06:27:02;24.50;74.20
39033;DHT22;24794;51.982;5.878;2022-08-14T06:28:03;24.50;74.20
39033;DHT22;24794;51.982;5.878;2022-08-14T06:29:03;24.50;74.10
39033;DHT22;24794;51.982;5.878;2022-08-14T06:30:09;24.50;74.20
39033;DHT22;24794;51.982;5.878;2022-08-14T06:31:10;24.50;74.30
39033;DHT22;24794;51.982;5.878;2022-08-14T06:32:11;24.60;74.40
39033;DHT22;24794;51.982;5.878;2022-08-14T06:33:12;24.60;74.40